Time;durP1;ratioP1;P1;durP2;ratioP2;P2;SDS_P1;SDS_P2;PMS_P1;PMS_P2;Temp;Humidity;BMP_temperature;BMP_pressure;BME280_temperature;BME280_humidity;BME280_pressure;Samples;Min_cycle;Max_cycle;Signal;HPM_P1;HPM_P2
2022/07/10 00:00:55;;;;;;;7.25;4.88;;;;;;;15.59;86.85;94530.31;4993978;28;20198;-80
2022/07/10 00:03:22;;;;;;;9.52;5.65;;;;;;;15.63;86.90;94524.94;4994112;28;20704;-80
2022/07/10 00:05:49;;;;;;;7.28;4.80;;;;;;;15.61;86.95;94533.50;4993449;28;20229;-80
2022/07/10 00:08:16;;;;;;;7.63;4.90;;;;;;;15.52;87.48;94532.91;4993593;28;20208;-79
2022/07/10 00:10:43;;;;;;;7.25;4.30;;;;;;;15.50;87.52;94521.56;4994114;28;20267;-80
2022/07/10 00:13:09;;;;;;;7.80;4.97;;;;;;;15.54;87.35;94525.16;4994194;28;20205;-80
2022/07/10 00:15:37;;;;;;;7.22;4.90;;;;;;;15.49;87.79;94524.63;4994383;28;20281;-80
2022/07/10 00:18:04;;;;;;;10.38;5.03;;;;;;;15.51;87.55;94528.59;4994293;28;20288;-80
2022/07/10 00:20:32;;;;;;;6.30;4.78;;;;;;;15.46;87.53;94520.69;4994081;28;20206;-80
2022/07/10 00:22:58;;;;;;;7.65;5.15;;;;;;;15.44;87.86;94522.22;4993811;28;20256;-80
2022/07/10 00:25:25;;;;;;;13.13;5.10;;;;;;;15.39;88.13;94517.84;4993410;28;20209;-79
2022/07/10 00:27:52;;;;;;;7.72;5.22;;;;;;;15.34;88.14;94518.13;4993381;28;20197;-79
2022/07/10 00:30:19;;;;;;;9.43;5.55;;;;;;;15.35;88.47;94519.69;4993761;28;20256;-79
2022/07/10 00:32:47;;;;;;;11.45;5.05;;;;;;;15.39;88.36;94514.31;4993634;28;20237;-80
2022/07/10 00:35:14;;;;;;;8.52;5.47;;;;;;;15.29;88.75;94504.78;4993312;28;20276;-79
2022/07/10 00:37:41;;;;;;;6.15;3.40;;;;;;;15.28;88.61;94506.72;4993525;28;20233;-79
2022/07/10 00:40:08;;;;;;;10.68;5.25;;;;;;;15.26;88.85;94505.50;4993009;28;20264;-79
2022/07/10 00:42:35;;;;;;;5.13;3.55;;;;;;;15.27;89.33;94504.34;4993666;28;20209;-76
2022/07/10 00:45:02;;;;;;;6.95;4.15;;;;;;;15.40;88.47;94504.97;4993531;28;20272;-80
2022/07/10 00:47:29;;;;;;;12.43;5.40;;;;;;;15.27;88.70;94501.59;4993258;28;20201;-80
2022/07/10 00:49:57;;;;;;;8.00;4.78;;;;;;;15.29;88.75;94499.31;4992967;28;20205;-79
2022/07/10 00:52:24;;;;;;;6.90;4.00;;;;;;;15.35;88.45;94497.84;4993527;28;20202;-78
2022/07/10 00:54:52;;;;;;;7.65;5.10;;;;;;;15.35;87.84;94497.06;4993193;28;20561;-79
2022/07/10 00:57:19;;;;;;;6.35;4.90;;;;;;;15.36;88.17;94499.44;4992861;28;20767;-79
2022/07/10 00:59:47;;;;;;;12.00;5.30;;;;;;;15.33;88.10;94500.16;4992532;28;20206;-79
2022/07/10 01:02:14;;;;;;;6.43;4.78;;;;;;;15.34;88.21;94490.81;4992813;28;20695;-78
2022/07/10 01:04:41;;;;;;;7.03;4.30;;;;;;;15.33;88.22;94491.19;4979799;28;20740;-79
2022/07/10 01:07:09;;;;;;;9.15;5.28;;;;;;;15.24;88.22;94480.50;4992565;28;20205;-79
2022/07/10 01:09:36;;;;;;;6.35;4.53;;;;;;;15.27;88.08;94487.97;4992695;28;20202;-78
2022/07/10 01:12:04;;;;;;;11.32;3.58;;;;;;;15.34;87.90;94490.03;4992918;28;20265;-77
2022/07/10 01:14:31;;;;;;;4.97;3.75;;;;;;;15.35;87.40;94492.41;4992736;28;20202;-77
2022/07/10 01:16:58;;;;;;;7.97;4.85;;;;;;;15.35;87.20;94492.41;4992876;28;20265;-78
2022/07/10 01:19:25;;;;;;;7.93;4.53;;;;;;;15.37;87.45;94489.31;4992575;28;20612;-78
2022/07/10 01:21:54;;;;;;;6.07;4.40;;;;;;;15.40;87.65;94492.13;4992702;28;20202;-77
2022/07/10 01:24:21;;;;;;;6.72;4.63;;;;;;;15.33;88.00;94489.25;4992427;28;20571;-80
2022/07/10 01:26:48;;;;;;;5.55;4.15;;;;;;;15.30;88.36;94489.97;4991876;28;20213;-80
2022/07/10 01:29:15;;;;;;;6.20;4.60;;;;;;;15.26;88.35;94481.72;4992194;28;20209;-80
2022/07/10 01:31:42;;;;;;;14.85;4.38;;;;;;;15.25;88.41;94482.06;4992736;28;20197;-80
2022/07/10 01:34:10;;;;;;;7.95;4.35;;;;;;;15.22;88.17;94480.84;4992225;28;20712;-79
2022/07/10 01:36:37;;;;;;;9.20;4.28;;;;;;;15.29;87.89;94477.47;4991441;28;20285;-80
2022/07/10 01:39:06;;;;;;;13.32;5.50;;;;;;;15.27;88.14;94474.31;4992158;28;20292;-79
2022/07/10 01:41:34;;;;;;;6.05;4.13;;;;;;;15.34;87.62;94468.97;4991835;28;20210;-79
2022/07/10 01:44:01;;;;;;;6.43;4.72;;;;;;;15.33;87.71;94469.34;4992295;28;20201;-80
2022/07/10 01:46:28;;;;;;;5.72;3.83;;;;;;;15.33;87.53;94461.16;4992183;28;20205;-79
2022/07/10 01:48:54;;;;;;;8.98;4.00;;;;;;;15.34;87.00;94462.72;4992425;28;20601;-79
2022/07/10 01:51:21;;;;;;;6.85;3.95;;;;;;;15.35;86.90;94467.84;4992287;28;20240;-79
2022/07/10 01:53:48;;;;;;;8.32;4.10;;;;;;;15.36;86.67;94461.22;4992315;28;20213;-78
2022/07/10 01:56:17;;;;;;;3.97;2.78;;;;;;;15.37;86.90;94476.44;4992039;28;20273;-78
2022/07/10 01:58:44;;;;;;;8.05;4.70;;;;;;;15.33;86.81;94467.41;4991784;28;20601;-80
2022/07/10 02:01:12;;;;;;;5.88;3.95;;;;;;;15.34;86.64;94460.78;4991633;28;20202;-78
2022/07/10 02:06:24;;;;;;;7.45;4.70;;;;;;;15.37;86.58;94457.34;4980369;28;20205;-80
2022/07/10 02:08:51;;;;;;;8.00;4.90;;;;;;;15.29;86.71;94461.09;4991402;28;20276;-80
2022/07/10 02:11:19;;;;;;;6.07;4.28;;;;;;;15.23;86.96;94448.88;4991655;28;20272;-80
2022/07/10 02:13:46;;;;;;;5.90;4.38;;;;;;;15.18;87.06;94457.34;4991318;28;20210;-80
2022/07/10 02:16:13;;;;;;;7.53;4.28;;;;;;;15.19;87.29;94451.53;4991995;28;20568;-77
2022/07/10 02:18:40;;;;;;;4.93;3.88;;;;;;;15.17;87.32;94458.53;4991734;28;20639;-79
2022/07/10 02:21:07;;;;;;;6.97;3.78;;;;;;;15.19;87.31;94457.00;4991579;28;20251;-80
2022/07/10 02:23:34;;;;;;;6.95;4.50;;;;;;;15.16;87.58;94457.75;4992004;28;20308;-78
2022/07/10 02:26:02;;;;;;;6.63;3.97;;;;;;;15.07;87.91;94459.88;4991317;28;20339;-78
2022/07/10 02:28:30;;;;;;;5.15;3.55;;;;;;;15.10;88.02;94452.94;4991904;28;20608;-77
2022/07/10 02:30:57;;;;;;;7.25;4.90;;;;;;;15.06;88.11;94446.59;4991598;28;20213;-79
2022/07/10 02:33:24;;;;;;;7.70;4.80;;;;;;;15.09;87.91;94456.81;4991251;28;20245;-78
2022/07/10 02:35:51;;;;;;;7.22;5.00;;;;;;;15.06;87.86;94457.50;4991913;28;20202;-79
2022/07/10 02:38:17;;;;;;;6.40;3.92;;;;;;;15.03;88.04;94459.03;4991876;28;20229;-77
2022/07/10 02:40:44;;;;;;;10.40;5.13;;;;;;;15.06;88.13;94461.03;4991437;28;20545;-78
2022/07/10 02:43:11;;;;;;;4.25;2.70;;;;;;;15.09;87.98;94451.34;4991339;28;20274;-74
2022/07/10 02:45:39;;;;;;;5.32;3.97;;;;;;;15.03;88.13;94453.59;4991400;28;20277;-79
2022/07/10 02:48:06;;;;;;;7.65;4.93;;;;;;;15.16;87.34;94456.97;4993468;28;20292;-78
2022/07/10 02:50:33;;;;;;;6.10;3.97;;;;;;;15.16;87.03;94462.41;4995004;28;20661;-76
2022/07/10 02:53:00;;;;;;;6.00;4.25;;;;;;;15.17;86.95;94464.00;4995669;28;20260;-77
2022/07/10 02:55:27;;;;;;;5.50;3.63;;;;;;;15.20;86.85;94463.25;4995279;28;20260;-77
2022/07/10 02:57:54;;;;;;;9.13;4.45;;;;;;;15.20;86.75;94469.50;4995783;28;20321;-79
2022/07/10 03:00:21;;;;;;;6.13;4.10;;;;;;;15.22;86.53;94483.56;4995538;28;20210;-76
2022/07/10 03:02:49;;;;;;;4.97;3.28;;;;;;;15.25;86.36;94471.94;4995047;28;20233;-80
2022/07/10 03:05:16;;;;;;;5.43;3.80;;;;;;;15.29;85.92;94472.03;4995028;28;20202;-78
2022/07/10 03:07:43;;;;;;;7.35;4.35;;;;;;;15.26;86.01;94478.19;4995505;28;20268;-78
2022/07/10 03:10:10;;;;;;;4.97;3.10;;;;;;;15.21;86.17;94471.09;4995091;28;20628;-76
2022/07/10 03:12:37;;;;;;;5.32;4.00;;;;;;;15.22;86.51;94471.88;4995181;28;20264;-78
2022/07/10 03:15:05;;;;;;;6.53;3.85;;;;;;;15.21;86.60;94475.75;4994980;28;20280;-80
2022/07/10 03:17:31;;;;;;;7.25;5.07;;;;;;;15.29;86.02;94488.41;4981749;28;20233;-78
2022/07/10 03:20:00;;;;;;;7.40;4.72;;;;;;;15.49;85.46;94475.50;4995245;28;20210;-75
2022/07/10 03:22:26;;;;;;;7.10;4.38;;;;;;;15.80;84.14;94485.44;4995221;28;20256;-77
2022/07/10 03:24:53;;;;;;;7.63;4.82;;;;;;;16.02;82.88;94483.84;4995307;28;20209;-78
2022/07/10 03:27:20;;;;;;;7.05;3.97;;;;;;;16.08;82.56;94483.19;4995110;28;20206;-80
2022/07/10 03:29:47;;;;;;;5.30;4.20;;;;;;;16.16;82.36;94486.81;4994778;28;20206;-80
2022/07/10 03:32:14;;;;;;;6.13;4.13;;;;;;;16.11;82.50;94484.41;4994481;28;20273;-80
2022/07/10 03:34:41;;;;;;;9.73;5.00;;;;;;;15.89;83.33;94484.03;4994878;28;20202;-79
2022/07/10 03:37:09;;;;;;;5.50;3.58;;;;;;;15.83;83.84;94490.19;4994550;28;20677;-79
2022/07/10 03:39:35;;;;;;;11.05;4.78;;;;;;;15.73;84.10;94490.78;4994816;28;20213;-77
2022/07/10 03:42:02;;;;;;;7.63;4.18;;;;;;;15.80;83.63;94485.44;4994129;28;20233;-77
2022/07/10 03:44:29;;;;;;;10.85;4.68;;;;;;;15.81;83.93;94478.84;4994508;28;20206;-77
2022/07/10 03:46:56;;;;;;;7.10;4.18;;;;;;;15.79;84.08;94478.41;4994365;28;20308;-78
2022/07/10 03:49:23;;;;;;;6.60;4.63;;;;;;;15.95;83.61;94481.81;4994720;28;20205;-79
2022/07/10 03:51:50;;;;;;;6.20;4.38;;;;;;;16.33;82.51;94476.19;4994884;28;20202;-79
2022/07/10 03:54:18;;;;;;;6.97;4.35;;;;;;;16.70;80.64;94478.28;4993999;28;20206;-78
2022/07/10 03:59:29;;;;;;;6.85;4.47;;;;;;;17.68;75.82;94469.72;4993467;28;20628;-79
2022/07/10 04:01:56;;;;;;;7.03;5.80;;;;;;;17.85;75.81;94471.06;4994201;28;20672;-79
2022/07/10 04:04:22;;;;;;;6.25;4.00;;;;;;;18.64;72.87;94461.50;4993259;28;20209;-79
2022/07/10 04:06:49;;;;;;;6.13;3.85;;;;;;;19.51;69.93;94454.88;4993395;28;20264;-79
2022/07/10 04:09:16;;;;;;;6.30;3.45;;;;;;;19.81;68.61;94457.31;4993793;28;20283;-79
2022/07/10 04:11:44;;;;;;;4.78;3.70;;;;;;;19.60;68.24;94451.75;4993532;28;20554;-79
2022/07/10 04:14:11;;;;;;;5.57;3.65;;;;;;;19.69;67.38;94454.13;4993741;28;20202;-78
2022/07/10 04:16:38;;;;;;;6.45;4.70;;;;;;;20.34;65.43;94444.75;4993510;28;20264;-79
2022/07/10 04:19:04;;;;;;;5.28;4.68;;;;;;;21.10;63.45;94442.25;4993653;28;20704;-79
2022/07/10 04:21:31;;;;;;;4.15;3.50;;;;;;;21.00;62.95;94445.84;4993936;28;20206;-77
2022/07/10 04:23:58;;;;;;;5.75;4.78;;;;;;;20.98;63.90;94433.63;4993428;28;20205;-81
2022/07/10 04:26:25;;;;;;;7.07;3.72;;;;;;;20.88;63.23;94435.25;4993595;28;20216;-79
2022/07/10 04:28:53;;;;;;;5.13;4.63;;;;;;;21.10;62.73;94439.50;4994130;28;20264;-80
2022/07/10 04:31:20;;;;;;;6.03;4.10;;;;;;;21.03;62.08;94442.28;4993781;28;20256;-79
2022/07/10 04:33:47;;;;;;;5.85;4.65;;;;;;;20.78;62.88;94441.56;4993365;28;20245;-78
2022/07/10 04:36:13;;;;;;;6.07;4.50;;;;;;;20.70;63.57;94434.50;4993576;28;20763;-81
2022/07/10 04:38:40;;;;;;;4.90;4.40;;;;;;;21.71;60.86;94439.25;4993720;28;20450;-78
2022/07/10 04:41:07;;;;;;;5.25;4.38;;;;;;;22.79;57.58;94432.50;4993393;28;20747;-79
2022/07/10 04:43:34;;;;;;;5.25;4.30;;;;;;;21.93;57.82;94433.19;4987363;28;20205;-79
2022/07/10 04:46:02;;;;;;;4.88;4.07;;;;;;;22.65;57.34;94428.66;4993180;28;20623;-80
2022/07/10 04:48:29;;;;;;;10.27;4.43;;;;;;;22.02;58.63;94437.47;4993132;28;20268;-79
2022/07/10 04:50:56;;;;;;;5.82;4.38;;;;;;;23.12;55.84;94428.19;4993315;28;20209;-79
2022/07/10 04:53:22;;;;;;;4.68;4.18;;;;;;;22.90;56.65;94433.16;4993500;28;20204;-80
2022/07/10 04:55:49;;;;;;;5.15;4.60;;;;;;;23.57;54.48;94426.06;4992999;28;20892;-79
2022/07/10 04:58:16;;;;;;;5.15;3.92;;;;;;;22.87;55.45;94439.50;4993177;28;20229;-78
2022/07/10 05:00:43;;;;;;;4.65;4.13;;;;;;;22.22;57.34;94439.31;4993505;28;20265;-79
2022/07/10 05:03:11;;;;;;;4.85;4.28;;;;;;;22.57;56.62;94435.44;4993037;28;20226;-80
2022/07/10 05:05:38;;;;;;;5.20;4.10;;;;;;;23.48;53.64;94434.06;4992999;28;20620;-80
2022/07/10 05:08:05;;;;;;;4.70;4.05;;;;;;;23.87;52.14;94428.81;4993484;28;20260;-78
2022/07/10 05:10:32;;;;;;;5.82;3.60;;;;;;;24.31;52.37;94429.75;4993395;28;20210;-79
2022/07/10 05:12:59;;;;;;;5.20;3.92;;;;;;;24.73;51.70;94434.56;4993002;28;20206;-79
2022/07/10 05:15:25;;;;;;;4.75;3.97;;;;;;;24.62;51.40;94433.97;4992979;28;20202;-80
2022/07/10 05:17:52;;;;;;;4.63;3.42;;;;;;;24.22;51.32;94429.47;4993232;28;20236;-79
2022/07/10 05:20:21;;;;;;;5.03;3.90;;;;;;;23.79;52.65;94421.81;4992632;28;20213;-78
2022/07/10 05:22:47;;;;;;;5.60;3.95;;;;;;;24.18;51.88;94415.69;4992568;28;20212;-79
2022/07/10 05:25:14;;;;;;;4.13;3.72;;;;;;;23.56;52.04;94425.28;4992270;28;20609;-79
2022/07/10 05:27:41;;;;;;;4.72;4.00;;;;;;;24.73;50.24;94412.41;4992415;28;20257;-81
2022/07/10 05:30:09;;;;;;;4.20;3.72;;;;;;;24.51;50.42;94425.06;4992588;28;20206;-77
2022/07/10 05:32:43;;;;;;;4.50;4.07;;;;;;;24.95;49.80;94409.25;4992490;28;20233;-80
2022/07/10 05:35:10;;;;;;;4.40;4.00;;;;;;;23.87;51.90;94423.28;4991946;28;20648;-79
2022/07/10 05:37:38;;;;;;;4.30;3.70;;;;;;;22.12;56.08;94433.88;4992067;28;20210;-79
2022/07/10 05:40:06;;;;;;;4.38;3.80;;;;;;;23.73;53.42;94424.28;4992385;28;20612;-79
2022/07/10 05:42:33;;;;;;;4.18;3.75;;;;;;;24.90;50.07;94423.56;4992495;28;20311;-80
2022/07/10 05:44:59;;;;;;;4.13;3.65;;;;;;;23.97;51.54;94427.88;4992324;28;20194;-80
2022/07/10 05:47:27;;;;;;;4.25;3.53;;;;;;;24.47;51.37;94418.00;4992335;28;20209;-81
2022/07/10 05:49:53;;;;;;;4.18;3.50;;;;;;;24.38;51.07;94424.09;4991915;28;20217;-80
2022/07/10 05:52:20;;;;;;;5.10;3.50;;;;;;;24.87;50.16;94422.44;4992334;28;20202;-80
2022/07/10 05:54:48;;;;;;;4.30;3.50;;;;;;;24.34;50.51;94423.34;4992457;28;20252;-80
2022/07/10 05:57:15;;;;;;;4.25;3.85;;;;;;;22.17;55.84;94444.47;4992418;28;20739;-82
2022/07/10 05:59:42;;;;;;;4.30;3.70;;;;;;;21.18;60.32;94440.28;4991894;28;20649;-81
2022/07/10 06:02:09;;;;;;;3.63;3.33;;;;;;;21.20;59.99;94440.66;4992380;28;20276;-82
2022/07/10 06:04:36;;;;;;;4.40;3.67;;;;;;;20.93;59.80;94432.06;4992022;28;20298;-79
2022/07/10 06:07:03;;;;;;;5.43;3.88;;;;;;;20.62;61.56;94433.75;4991489;28;20619;-80
2022/07/10 06:09:30;;;;;;;4.97;4.00;;;;;;;20.23;63.06;94441.97;4992179;28;20205;-82
2022/07/10 06:11:58;;;;;;;4.63;3.97;;;;;;;20.00;63.15;94441.59;4991695;28;20723;-76
2022/07/10 06:14:25;;;;;;;3.92;3.53;;;;;;;20.21;63.47;94441.63;4978756;28;20303;-79
2022/07/10 06:16:52;;;;;;;4.85;3.45;;;;;;;20.30;62.21;94439.25;4990830;28;20234;-81
2022/07/10 06:19:19;;;;;;;4.05;3.47;;;;;;;20.73;61.72;94430.97;4991539;28;20232;-80
2022/07/10 06:21:46;;;;;;;3.72;3.33;;;;;;;20.74;60.17;94436.06;4991280;28;20220;-77
2022/07/10 06:24:12;;;;;;;4.20;3.05;;;;;;;20.67;60.18;94429.78;4991404;28;20214;-79
2022/07/10 06:26:39;;;;;;;3.83;3.47;;;;;;;21.19;58.38;94422.56;4991707;28;20510;-79
2022/07/10 06:29:07;;;;;;;3.95;3.40;;;;;;;22.53;54.76;94420.91;4991664;28;20216;-79
2022/07/10 06:31:34;;;;;;;3.90;3.03;;;;;;;23.49;51.95;94408.00;4991448;28;20209;-80
2022/07/10 06:34:01;;;;;;;3.72;3.10;;;;;;;23.75;51.66;94407.25;4990967;28;20624;-81
2022/07/10 06:36:27;;;;;;;3.72;2.75;;;;;;;24.50;49.96;94409.63;4991300;28;20700;-81
2022/07/10 06:38:54;;;;;;;3.75;3.25;;;;;;;26.06;46.71;94412.06;4991648;28;20233;-79
2022/07/10 06:41:21;;;;;;;3.13;2.83;;;;;;;25.67;45.87;94412.19;4991782;28;20612;-79
2022/07/10 06:43:48;;;;;;;3.20;2.90;;;;;;;25.65;46.37;94414.59;4992019;28;20293;-82
2022/07/10 06:46:16;;;;;;;3.30;2.83;;;;;;;26.29;45.76;94413.16;4991610;28;20540;-81
2022/07/10 06:48:43;;;;;;;3.53;2.70;;;;;;;26.22;45.66;94404.97;4991563;28;20681;-80
2022/07/10 06:51:10;;;;;;;2.67;2.47;;;;;;;25.07;46.51;94409.41;4991990;28;20252;-79
2022/07/10 06:53:37;;;;;;;3.35;2.90;;;;;;;24.96;47.26;94413.59;4991311;28;20206;-76
2022/07/10 06:56:04;;;;;;;4.65;2.80;;;;;;;24.74;48.54;94416.72;4991881;28;20201;-80
2022/07/10 06:58:31;;;;;;;3.33;3.00;;;;;;;25.34;46.67;94406.50;4991401;28;20225;-76
2022/07/10 07:00:58;;;;;;;2.50;2.30;;;;;;;24.78;47.80;94409.13;4991449;28;20269;-78
2022/07/10 07:03:26;;;;;;;6.18;2.70;;;;;;;23.77;50.63;94413.16;4991527;28;20229;-79
2022/07/10 07:05:53;;;;;;;4.80;2.97;;;;;;;25.81;48.15;94406.31;4991033;28;20272;-78
2022/07/10 07:08:20;;;;;;;3.97;3.15;;;;;;;25.56;47.26;94411.59;4991190;28;20268;-79
2022/07/10 07:10:47;;;;;;;3.50;2.42;;;;;;;26.76;45.05;94403.22;4991722;28;20209;-80
2022/07/10 07:13:14;;;;;;;3.25;2.88;;;;;;;25.33;47.69;94404.91;4991798;28;20205;-78
2022/07/10 07:15:46;;;;;;;3.47;3.17;;;;;;;24.90;48.31;94399.41;4991328;28;20201;-79
2022/07/10 07:18:15;;;;;;;3.13;2.65;;;;;;;25.42;48.35;94407.88;4991277;28;20198;-80
2022/07/10 07:23:28;;;;;;;2.83;2.63;;;;;;;24.65;49.30;94405.41;4990648;28;20246;-78
2022/07/10 07:25:55;;;;;;;3.03;2.58;;;;;;;24.47;48.94;94416.00;4990491;28;20210;-76
2022/07/10 07:28:22;;;;;;;2.95;2.65;;;;;;;24.06;50.89;94416.25;4990878;28;20252;-80
2022/07/10 07:30:49;;;;;;;3.33;3.03;;;;;;;23.90;51.11;94411.38;4990667;28;20639;-80
2022/07/10 07:33:16;;;;;;;4.57;3.17;;;;;;;24.93;49.66;94404.13;4990856;28;20229;-80
2022/07/10 07:35:44;;;;;;;4.38;3.25;;;;;;;24.95;48.51;94406.50;4992369;28;20197;-78
2022/07/10 07:38:11;;;;;;;3.50;2.80;;;;;;;24.82;49.44;94406.31;4994432;28;20426;-78
2022/07/10 07:40:38;;;;;;;3.85;2.70;;;;;;;26.05;45.31;94391.06;4994069;28;20646;-77
2022/07/10 07:43:05;;;;;;;3.00;2.70;;;;;;;26.31;45.65;94402.38;4994009;28;20213;-78
2022/07/10 07:45:32;;;;;;;4.30;2.70;;;;;;;25.80;45.59;94410.31;4994107;28;20198;-78
2022/07/10 07:48:01;;;;;;;3.92;2.78;;;;;;;26.44;45.28;94397.69;4994722;28;20214;-79
2022/07/10 07:50:31;;;;;;;2.97;2.60;;;;;;;25.69;46.95;94404.22;4993501;28;20256;-80
2022/07/10 07:53:00;;;;;;;3.55;2.40;;;;;;;24.30;48.71;94406.81;4994535;28;20289;-79
2022/07/10 07:55:27;;;;;;;3.08;2.78;;;;;;;23.81;50.96;94397.28;4993738;28;20201;-75
2022/07/10 07:57:56;;;;;;;4.72;2.90;;;;;;;24.02;50.25;94402.50;4994646;28;20210;-77
2022/07/10 08:00:24;;;;;;;5.40;2.90;;;;;;;24.50;48.98;94404.09;4994371;28;20237;-77
2022/07/10 08:02:52;;;;;;;3.03;2.70;;;;;;;24.17;49.96;94391.97;4994156;28;20824;-79
2022/07/10 08:05:20;;;;;;;3.60;3.28;;;;;;;23.98;51.86;94395.44;4994087;28;20206;-74
2022/07/10 08:07:51;;;;;;;2.95;2.55;;;;;;;24.26;49.74;94394.22;4993830;28;20202;-76
2022/07/10 08:10:22;;;;;;;3.00;2.70;;;;;;;24.70;49.13;94388.31;4993874;28;20206;-76
2022/07/10 08:12:50;;;;;;;3.35;2.50;;;;;;;24.75;47.62;94392.56;4994483;28;20202;-78
2022/07/10 08:15:18;;;;;;;2.60;2.40;;;;;;;24.90;47.64;94387.53;4994291;28;20209;-82
2022/07/10 08:17:48;;;;;;;3.97;2.80;;;;;;;24.90;47.08;94390.31;4980950;28;20242;-80
2022/07/10 08:20:15;;;;;;;6.75;3.05;;;;;;;25.58;46.39;94392.50;4993758;28;20647;-81
2022/07/10 08:22:42;;;;;;;3.08;2.45;;;;;;;25.04;46.16;94384.53;4993512;28;20285;-74
2022/07/10 08:25:10;;;;;;;2.60;2.40;;;;;;;24.03;48.15;94398.53;4993365;28;20210;-78
2022/07/10 08:27:39;;;;;;;4.93;2.10;;;;;;;23.43;49.98;94401.34;4999124;28;20194;-75
2022/07/10 08:30:09;;;;;;;2.38;2.10;;;;;;;24.06;48.54;94402.41;4994774;28;20214;-76
2022/07/10 08:32:37;;;;;;;5.10;2.40;;;;;;;25.27;44.91;94395.56;4993057;28;20253;-80
2022/07/10 08:35:04;;;;;;;3.95;2.30;;;;;;;26.03;45.26;94396.28;4993382;28;20190;-78
2022/07/10 08:37:38;;;;;;;6.65;2.50;;;;;;;26.11;43.33;94397.66;4993637;28;20205;-77
2022/07/10 08:40:06;;;;;;;2.45;2.17;;;;;;;26.49;43.01;94397.97;4993450;28;20233;-77
2022/07/10 08:42:33;;;;;;;3.35;2.60;;;;;;;27.10;43.19;94393.59;4993568;28;20260;-78
2022/07/10 08:45:02;;;;;;;2.13;1.92;;;;;;;26.85;43.54;94395.03;4993113;28;20708;-78
2022/07/10 08:47:31;;;;;;;4.72;2.72;;;;;;;25.00;45.55;94394.91;4994251;28;20677;-79
2022/07/10 08:49:58;;;;;;;2.67;2.40;;;;;;;25.20;46.69;94401.22;4993351;28;20268;-76
2022/07/10 08:52:32;;;;;;;2.60;2.40;;;;;;;26.40;43.25;94385.88;4992839;28;20275;-80
2022/07/10 08:54:59;;;;;;;3.47;2.78;;;;;;;27.14;41.83;94383.16;4981665;28;20193;-81
2022/07/10 08:57:27;;;;;;;2.38;2.17;;;;;;;27.16;40.47;94375.16;4993045;28;20631;-79
2022/07/10 08:59:54;;;;;;;2.78;2.42;;;;;;;25.21;42.60;94386.16;4993299;28;20709;-74
2022/07/10 09:02:22;;;;;;;3.40;2.70;;;;;;;25.57;43.37;94391.72;4992848;28;20224;-78
2022/07/10 09:04:49;;;;;;;2.50;2.28;;;;;;;25.18;43.79;94387.00;4993519;28;20209;-78
2022/07/10 09:07:17;;;;;;;4.47;2.53;;;;;;;25.84;43.85;94383.22;4993168;28;20253;-78
2022/07/10 09:09:54;;;;;;;2.50;2.10;;;;;;;26.53;42.68;94378.41;4993237;28;20747;-79
2022/07/10 09:12:22;;;;;;;2.75;2.25;;;;;;;25.96;42.17;94379.78;4992699;28;20208;-79
2022/07/10 09:14:48;;;;;;;3.30;2.63;;;;;;;25.65;44.78;94389.63;4993705;28;20208;-80
2022/07/10 09:17:15;;;;;;;4.88;2.65;;;;;;;26.22;44.76;94388.31;4993010;28;20209;-79
2022/07/10 09:19:44;;;;;;;2.80;2.50;;;;;;;26.70;42.81;94377.16;4992654;28;20573;-79
2022/07/10 09:22:14;;;;;;;3.38;2.50;;;;;;;26.54;40.63;94374.41;4992655;28;20209;-79
2022/07/10 09:24:43;;;;;;;3.08;2.67;;;;;;;26.45;43.09;94371.47;4992372;28;20687;-78
2022/07/10 09:27:12;;;;;;;5.30;2.72;;;;;;;25.97;42.24;94367.44;4992529;28;20256;-82
2022/07/10 09:29:47;;;;;;;2.70;2.40;;;;;;;26.81;42.97;94366.53;4992212;28;20682;-80
2022/07/10 09:32:14;;;;;;;2.60;2.38;;;;;;;25.93;42.60;94377.88;4980145;28;20197;-81
2022/07/10 09:34:42;;;;;;;3.42;2.17;;;;;;;24.84;46.10;94378.16;4997249;28;20205;-79
2022/07/10 09:37:23;;;;;;;3.25;2.58;;;;;;;25.65;46.16;94375.75;4996906;28;20240;-82
2022/07/10 09:39:58;;;;;;;3.78;2.33;;;;;;;26.79;44.39;94363.41;4991392;28;20228;-79
2022/07/10 09:42:26;;;;;;;2.83;2.63;;;;;;;26.66;42.38;94370.91;4992113;28;20279;-81
2022/07/10 09:44:53;;;;;;;4.35;2.50;;;;;;;27.43;41.76;94356.06;4991885;28;20684;-81
2022/07/10 09:47:23;;;;;;;3.95;3.42;;;;;;;27.64;40.43;94346.31;4991550;28;20661;-80
2022/07/10 09:49:50;;;;;;;2.92;2.30;;;;;;;27.45;40.39;94364.78;4991214;28;20206;-77
2022/07/10 09:52:21;;;;;;;2.13;1.92;;;;;;;26.04;43.45;94366.50;4994313;28;20252;-77
2022/07/10 09:54:48;;;;;;;3.00;2.55;;;;;;;25.54;43.98;94369.63;4992931;28;20190;-76
2022/07/10 09:57:18;;;;;;;3.45;2.58;;;;;;;25.25;46.36;94364.69;4995770;28;20202;-80
2022/07/10 09:59:46;;;;;;;2.90;2.60;;;;;;;25.43;44.31;94359.53;4991621;28;20237;-83
2022/07/10 10:02:17;;;;;;;2.38;2.17;;;;;;;26.03;45.32;94362.16;4992193;28;20308;-81
2022/07/10 10:04:44;;;;;;;2.58;2.33;;;;;;;26.16;44.80;94358.28;4979496;28;20190;-85
2022/07/10 10:07:14;;;;;;;1.98;1.85;;;;;;;26.14;43.58;94357.91;4992346;28;20209;-80
2022/07/10 10:09:53;;;;;;;2.88;2.45;;;;;;;25.98;43.79;94348.78;4992313;28;20285;-81
2022/07/10 10:12:30;;;;;;;2.88;2.25;;;;;;;26.87;43.15;94348.13;4991464;28;20240;-84
2022/07/10 10:14:58;;;;;;;2.40;2.00;;;;;;;26.55;42.86;94353.75;4991983;28;20560;-83
2022/07/10 10:17:28;;;;;;;2.03;1.83;;;;;;;25.68;42.81;94349.91;4992051;28;20271;-77
2022/07/10 10:22:43;;;;;;;2.10;1.90;;;;;;;26.84;41.88;94337.09;4980462;28;20320;-84
2022/07/10 10:25:12;;;;;;;2.97;2.10;;;;;;;27.38;40.92;94331.56;4991802;28;20198;-79
2022/07/10 10:27:39;;;;;;;3.58;2.30;;;;;;;27.28;41.73;94332.69;4991216;28;20253;-77
2022/07/10 10:30:07;;;;;;;2.35;1.90;;;;;;;26.04;42.43;94347.84;4991157;28;20248;-79
2022/07/10 10:32:34;;;;;;;2.33;1.83;;;;;;;25.70;43.10;94344.69;4991548;28;20229;-77
2022/07/10 10:35:01;;;;;;;3.20;2.28;;;;;;;25.47;44.86;94340.81;4991690;28;20210;-80
2022/07/10 10:37:42;;;;;;;3.15;1.90;;;;;;;25.80;45.76;94335.38;4991628;28;20213;-80
2022/07/10 10:40:11;;;;;;;3.17;2.08;;;;;;;25.80;44.73;94332.59;4991163;28;20213;-81
2022/07/10 10:42:39;;;;;;;2.20;2.00;;;;;;;25.40;45.30;94343.78;4991216;28;20252;-80
2022/07/10 10:45:27;;;;;;;2.35;2.03;;;;;;;25.37;43.57;94339.06;4991224;28;20664;-78
2022/07/10 10:48:01;;;;;;;3.33;2.08;;;;;;;25.39;45.87;94352.50;4997310;28;20197;-76
2022/07/10 10:50:38;;;;;;;2.25;2.03;;;;;;;25.70;44.76;94344.69;4991363;28;20596;-81
2022/07/10 10:53:06;;;;;;;4.00;2.38;;;;;;;25.96;44.65;94340.94;4991433;28;20720;-77
2022/07/10 10:55:34;;;;;;;4.30;2.00;;;;;;;25.34;44.12;94331.59;4990585;28;20681;-78
2022/07/10 10:58:14;;;;;;;2.08;1.88;;;;;;;25.16;44.57;94345.06;4990762;28;20672;-81
2022/07/10 11:00:42;;;;;;;1.63;1.50;;;;;;;24.65;44.66;94336.16;4995994;28;20673;-73
2022/07/10 11:03:23;;;;;;;2.53;1.98;;;;;;;24.66;46.42;94331.41;4991368;28;20317;-76
2022/07/10 11:05:51;;;;;;;2.75;2.20;;;;;;;25.54;43.58;94330.78;5001049;28;20189;-80
2022/07/10 11:08:45;;;;;;;3.38;2.10;;;;;;;25.30;43.55;94332.88;4997018;28;20614;-78
2022/07/10 11:11:41;;;;;;;2.35;1.92;;;;;;;25.21;43.65;94341.78;4936801;28;20208;-79
2022/07/10 11:14:09;;;;;;;2.28;2.08;;;;;;;25.13;44.66;94332.06;4994965;28;20224;-79
2022/07/10 11:16:36;;;;;;;3.00;1.80;;;;;;;25.88;42.00;94333.19;4995264;28;20198;-78
2022/07/10 11:19:04;;;;;;;1.95;1.75;;;;;;;25.88;42.70;94328.41;4993846;28;20224;-77
2022/07/10 11:21:46;;;;;;;2.13;1.92;;;;;;;25.70;42.00;94326.06;4994322;28;20234;-76
2022/07/10 11:24:29;;;;;;;2.33;1.90;;;;;;;25.70;42.88;94328.03;4994690;28;20193;-79
2022/07/10 11:27:03;;;;;;;2.15;1.95;;;;;;;25.77;42.95;94311.25;4994670;28;20222;-79
2022/07/10 11:29:37;;;;;;;2.17;1.90;;;;;;;25.90;43.37;94308.56;4994748;28;20308;-75
2022/07/10 11:32:04;;;;;;;1.85;1.73;;;;;;;25.59;43.50;94308.06;4994134;28;20202;-77
2022/07/10 11:34:36;;;;;;;3.15;2.03;;;;;;;25.19;44.08;94319.25;4994031;28;20261;-75
2022/07/10 11:37:03;;;;;;;2.22;2.00;;;;;;;24.20;46.45;94323.91;4994754;28;20206;-80
2022/07/10 11:39:30;;;;;;;2.05;1.85;;;;;;;24.14;47.25;94320.84;4994451;28;20197;-79
2022/07/10 11:41:58;;;;;;;5.45;1.98;;;;;;;24.47;46.25;94321.84;4994165;28;20684;-78
2022/07/10 11:44:27;;;;;;;2.10;1.90;;;;;;;24.57;45.10;94314.56;4994338;28;20220;-76
2022/07/10 11:46:55;;;;;;;2.90;2.00;;;;;;;24.78;47.97;94320.47;4993729;28;20202;-78
2022/07/10 11:49:22;;;;;;;2.83;2.05;;;;;;;24.41;47.09;94320.78;4994107;28;20229;-76